Time;durP1;ratioP1;P1;durP2;ratioP2;P2;SDS_P1;SDS_P2;PMS_P1;PMS_P2;Temp;Humidity;BMP_temperature;BMP_pressure;BME280_temperature;BME280_humidity;BME280_pressure;Samples;Min_cycle;Max_cycle;Signal;HPM_P1;HPM_P2
2023/05/25 00:01:15;;;;;;;13.50;7.38;;;;;;;8.92;67.83;98789.38;4993425;28;20115;-75
2023/05/25 00:03:41;;;;;;;13.65;6.50;;;;;;;9.10;67.52;98788.63;4984620;28;20038;-75
2023/05/25 00:06:06;;;;;;;11.75;6.20;;;;;;;9.08;67.55;98779.94;4994128;28;20030;-74
2023/05/25 00:08:32;;;;;;;12.02;6.15;;;;;;;9.15;67.33;98793.34;4978015;28;20408;-75
2023/05/25 00:10:57;;;;;;;14.25;6.50;;;;;;;9.13;67.22;98806.97;4993998;28;20026;-76
2023/05/25 00:13:23;;;;;;;14.45;6.72;;;;;;;9.11;67.82;98798.31;4994226;28;20359;-76
2023/05/25 00:15:48;;;;;;;13.60;6.25;;;;;;;9.13;67.71;98800.78;4977766;28;20030;-76
2023/05/25 00:18:13;;;;;;;13.15;6.50;;;;;;;8.89;67.65;98794.38;4994233;28;20041;-76
2023/05/25 00:20:39;;;;;;;15.43;7.00;;;;;;;8.92;68.17;98789.38;4993866;28;20069;-76
2023/05/25 00:23:04;;;;;;;14.15;6.78;;;;;;;8.99;67.13;98778.56;4978083;28;20035;-77
2023/05/25 00:25:29;;;;;;;13.18;5.85;;;;;;;9.07;66.76;98783.69;4995464;28;20030;-76
2023/05/25 00:27:55;;;;;;;20.92;7.30;;;;;;;9.24;66.67;98778.56;4994026;28;20060;-76
2023/05/25 00:30:20;;;;;;;12.80;7.05;;;;;;;9.22;66.85;98777.97;4993635;28;20057;-76
2023/05/25 00:32:46;;;;;;;14.43;7.05;;;;;;;8.82;67.62;98777.50;4993683;28;20026;-77
2023/05/25 00:35:12;;;;;;;13.30;7.07;;;;;;;9.05;67.45;98775.03;4977464;28;20025;-76
2023/05/25 00:38:03;;;;;;;16.42;7.00;;;;;;;8.98;67.27;98779.63;4995433;28;20534;-76
2023/05/25 00:40:28;;;;;;;15.82;6.82;;;;;;;8.90;67.23;98771.84;5002674;28;20046;-76
2023/05/25 00:42:54;;;;;;;15.75;6.70;;;;;;;9.05;67.28;98780.41;4980554;28;20022;-76
2023/05/25 00:45:20;;;;;;;16.65;6.97;;;;;;;8.63;68.18;98778.47;4996564;28;20049;-75
2023/05/25 00:47:50;;;;;;;13.35;6.65;;;;;;;8.49;69.01;98771.53;4994375;28;20029;-75
2023/05/25 00:50:16;;;;;;;15.63;7.18;;;;;;;8.82;67.54;98777.50;4989511;28;20093;-75
2023/05/25 00:52:41;;;;;;;12.48;6.40;;;;;;;8.81;66.79;98771.31;4965107;28;20491;-75
2023/05/25 00:55:07;;;;;;;14.05;7.07;;;;;;;8.81;66.72;98775.84;4976910;28;20091;-76
2023/05/25 00:57:36;;;;;;;16.42;6.97;;;;;;;8.88;66.36;98771.25;4977124;28;20113;-76
2023/05/25 01:00:09;;;;;;;16.08;6.90;;;;;;;8.75;67.31;98771.38;4977803;28;20030;-76
2023/05/25 01:02:35;;;;;;;12.57;6.38;;;;;;;8.70;68.13;98769.34;4997188;28;20404;-77
2023/05/25 01:05:01;;;;;;;15.07;6.20;;;;;;;8.82;67.18;98774.81;5012822;28;20026;-76
2023/05/25 01:07:27;;;;;;;16.35;7.32;;;;;;;8.88;66.52;98772.06;4980003;28;20057;-76
2023/05/25 01:10:01;;;;;;;16.38;7.28;;;;;;;9.17;65.96;98769.75;4977468;28;20026;-77
2023/05/25 01:12:28;;;;;;;17.83;6.20;;;;;;;9.05;65.87;98769.66;4991701;28;20026;-76
2023/05/25 01:14:54;;;;;;;13.93;6.50;;;;;;;8.97;66.55;98759.19;4985082;28;20026;-76
2023/05/25 01:17:20;;;;;;;13.73;7.00;;;;;;;8.94;66.92;98762.28;4977038;28;20488;-76
2023/05/25 01:19:46;;;;;;;13.00;6.70;;;;;;;8.80;66.27;98752.69;4976680;28;20129;-75
2023/05/25 01:22:24;;;;;;;16.13;7.93;;;;;;;8.96;66.40;98749.50;4989567;28;20038;-76
2023/05/25 01:24:53;;;;;;;14.93;6.82;;;;;;;8.75;66.08;98756.06;4993792;28;20061;-75
2023/05/25 01:27:37;;;;;;;12.65;6.30;;;;;;;8.86;66.84;98758.03;4976645;28;20022;-76
2023/05/25 01:30:03;;;;;;;16.65;6.80;;;;;;;8.98;66.58;98760.84;4960791;28;20041;-75
2023/05/25 01:32:31;;;;;;;15.05;6.93;;;;;;;8.85;67.12;98755.56;4992880;28;20026;-76
2023/05/25 01:34:56;;;;;;;15.13;6.63;;;;;;;9.07;66.35;98769.44;4986029;28;20085;-76
2023/05/25 01:37:25;;;;;;;18.48;7.15;;;;;;;8.54;68.12;98766.34;4986386;28;20475;-76
2023/05/25 01:39:50;;;;;;;13.73;6.93;;;;;;;8.79;67.21;98762.66;4995186;28;20040;-75
2023/05/25 01:42:15;;;;;;;20.30;7.40;;;;;;;8.92;66.87;98773.28;4986152;28;20018;-75
2023/05/25 01:44:41;;;;;;;12.43;7.03;;;;;;;8.82;66.25;98766.75;4995317;28;20053;-75
2023/05/25 01:47:23;;;;;;;12.35;6.65;;;;;;;8.98;65.64;98764.31;5012236;28;20029;-74
2023/05/25 01:50:00;;;;;;;16.55;7.30;;;;;;;8.83;67.48;98774.59;4995966;28;20458;-74
2023/05/25 01:52:30;;;;;;;15.27;7.18;;;;;;;8.77;66.83;98769.28;4982573;28;20046;-75
2023/05/25 01:55:07;;;;;;;13.23;6.93;;;;;;;8.86;67.15;98768.78;4967834;28;20524;-75
2023/05/25 01:57:36;;;;;;;13.98;7.28;;;;;;;8.55;67.87;98770.66;4980573;28;20057;-74
2023/05/25 02:00:03;;;;;;;14.13;6.80;;;;;;;8.51;68.42;98769.47;4976489;28;20064;-74
2023/05/25 02:02:41;;;;;;;19.30;8.35;;;;;;;8.24;69.32;98764.22;4992165;28;20038;-75
2023/05/25 02:05:06;;;;;;;14.23;6.55;;;;;;;8.67;67.30;98752.81;4976028;28;20038;-76
2023/05/25 02:07:32;;;;;;;12.98;7.10;;;;;;;8.71;67.44;98770.13;4976218;28;20038;-76
2023/05/25 02:09:58;;;;;;;15.70;7.00;;;;;;;8.66;68.24;98767.31;4993815;28;20109;-74
2023/05/25 02:12:25;;;;;;;15.23;8.00;;;;;;;8.56;67.44;98758.91;4976376;28;20542;-74
2023/05/25 02:14:50;;;;;;;15.93;7.75;;;;;;;8.68;68.02;98770.59;4992207;28;20042;-75
2023/05/25 02:17:19;;;;;;;15.07;8.05;;;;;;;8.62;68.28;98771.44;4992166;28;20029;-75
2023/05/25 02:19:45;;;;;;;12.35;7.18;;;;;;;8.53;68.58;98770.06;4992382;28;20419;-75
2023/05/25 02:22:11;;;;;;;14.98;7.40;;;;;;;8.37;69.83;98774.09;4976478;28;20357;-78
2023/05/25 02:24:36;;;;;;;14.32;7.57;;;;;;;8.25;69.39;98765.88;5003874;28;20037;-76
2023/05/25 02:27:03;;;;;;;17.80;8.07;;;;;;;8.28;68.79;98770.03;4991313;28;20061;-76
2023/05/25 02:29:29;;;;;;;16.00;8.15;;;;;;;8.47;68.71;98773.63;4992544;28;20572;-75
2023/05/25 02:31:55;;;;;;;17.88;8.57;;;;;;;8.48;68.40;98769.88;4990651;28;20069;-75
2023/05/25 02:34:20;;;;;;;15.68;8.32;;;;;;;8.35;69.21;98776.19;4987055;28;20030;-76
2023/05/25 02:36:46;;;;;;;14.80;8.50;;;;;;;8.37;69.22;98773.28;4995703;28;20045;-76
2023/05/25 02:39:11;;;;;;;15.38;9.88;;;;;;;8.19;71.25;98772.09;5012219;28;20127;-75
2023/05/25 02:41:37;;;;;;;17.05;9.10;;;;;;;7.99;70.72;98768.69;4995365;28;20033;-75
2023/05/25 02:44:02;;;;;;;15.23;9.27;;;;;;;8.00;71.55;98775.72;5013061;28;20037;-75
2023/05/25 02:46:29;;;;;;;14.45;9.27;;;;;;;7.91;70.60;98765.44;4977709;28;20506;-76
2023/05/25 02:48:55;;;;;;;16.50;9.80;;;;;;;8.19;69.60;98771.28;4975956;28;20038;-75
2023/05/25 02:51:21;;;;;;;14.63;9.88;;;;;;;7.98;70.90;98775.09;5038556;23;20045;-75
2023/05/25 02:53:47;;;;;;;15.35;9.90;;;;;;;7.95;69.53;98772.84;5014903;28;20132;-75
2023/05/25 02:56:12;;;;;;;16.00;10.23;;;;;;;8.07;70.17;98773.84;5034699;28;20037;-75
2023/05/25 02:58:38;;;;;;;17.77;9.90;;;;;;;8.10;70.42;98784.13;5002363;28;20044;-75
2023/05/25 03:01:17;;;;;;;17.80;9.88;;;;;;;7.97;70.19;98778.00;5018934;28;20025;-76
2023/05/25 03:03:46;;;;;;;15.73;10.18;;;;;;;8.05;70.67;98777.75;5018846;28;20514;-74
2023/05/25 03:06:12;;;;;;;18.05;11.23;;;;;;;7.98;71.63;98782.34;5014662;28;20029;-74
2023/05/25 03:08:38;;;;;;;16.27;11.80;;;;;;;7.96;71.84;98779.06;5011888;28;20111;-75
2023/05/25 03:11:04;;;;;;;20.08;13.50;;;;;;;7.88;71.37;98782.78;5017851;28;20049;-74
2023/05/25 03:13:29;;;;;;;17.30;15.15;;;;;;;7.68;72.26;98782.03;5017669;28;20356;-74
2023/05/25 03:15:55;;;;;;;16.38;14.30;;;;;;;7.81;71.54;98784.66;5019156;28;20116;-74
2023/05/25 03:18:21;;;;;;;17.17;15.23;;;;;;;7.61;72.48;98781.22;5015313;28;20442;-74
2023/05/25 03:20:47;;;;;;;18.73;16.10;;;;;;;7.76;72.13;98787.16;5015347;28;20018;-74
2023/05/25 03:23:12;;;;;;;18.33;15.70;;;;;;;7.78;71.99;98784.25;5017275;28;20179;-74
2023/05/25 03:25:38;;;;;;;20.40;16.98;;;;;;;7.60;72.82;98799.19;5033911;28;20034;-74
2023/05/25 03:28:03;;;;;;;21.10;18.15;;;;;;;7.53;72.41;98797.53;5017660;28;20036;-74
2023/05/25 03:33:12;;;;;;;18.73;16.73;;;;;;;7.70;72.17;98795.22;5122098;22;20060;-75
2023/05/25 03:35:42;;;;;;;18.17;16.13;;;;;;;7.82;71.73;98802.38;5018091;28;20033;-75
2023/05/25 03:38:07;;;;;;;19.70;16.10;;;;;;;7.79;71.72;98808.19;5017120;28;20025;-73
2023/05/25 03:40:33;;;;;;;17.27;13.00;;;;;;;7.98;70.84;98809.16;5033239;28;20025;-74
2023/05/25 03:42:58;;;;;;;20.70;12.63;;;;;;;8.09;70.45;98797.75;5000995;28;20057;-75
2023/05/25 03:45:24;;;;;;;17.70;12.25;;;;;;;8.12;70.60;98798.13;4997785;28;20022;-74
2023/05/25 03:47:49;;;;;;;15.55;11.25;;;;;;;8.21;69.47;98812.94;5013432;28;20049;-74
2023/05/25 03:50:15;;;;;;;17.08;11.13;;;;;;;8.10;70.34;98816.31;4997095;28;20116;-75
2023/05/25 03:52:40;;;;;;;17.60;13.27;;;;;;;8.15;70.75;98824.53;5013929;28;20112;-75
2023/05/25 03:55:06;;;;;;;16.25;14.52;;;;;;;8.10;71.40;98816.31;4996896;28;20030;-74
2023/05/25 03:57:31;;;;;;;17.85;15.10;;;;;;;8.09;71.43;98814.69;5013358;28;20045;-74
2023/05/25 03:59:57;;;;;;;17.58;15.77;;;;;;;8.35;71.20;98825.28;4997007;28;20018;-75
2023/05/25 04:02:23;;;;;;;20.50;18.40;;;;;;;8.29;71.79;98830.69;4996795;28;20041;-74
2023/05/25 04:04:50;;;;;;;21.63;18.02;;;;;;;8.04;72.78;98821.69;5013078;28;20519;-74
2023/05/25 04:07:17;;;;;;;21.60;19.33;;;;;;;7.97;72.17;98832.47;5012355;28;20030;-75
2023/05/25 04:09:43;;;;;;;19.83;17.90;;;;;;;8.03;71.90;98831.59;5007336;28;20034;-74
2023/05/25 04:12:08;;;;;;;20.55;18.30;;;;;;;8.08;73.17;98828.28;5012739;28;20064;-74
2023/05/25 04:14:33;;;;;;;18.67;17.08;;;;;;;8.26;71.13;98831.94;4996509;28;20026;-72
2023/05/25 04:16:59;;;;;;;15.65;14.18;;;;;;;8.28;70.56;98835.22;5012987;28;20033;-75
2023/05/25 04:19:25;;;;;;;15.23;13.43;;;;;;;8.45;70.21;98835.56;5013092;28;20419;-74
2023/05/25 04:21:51;;;;;;;18.52;12.57;;;;;;;8.38;69.89;98844.69;5012702;28;20038;-74
2023/05/25 04:24:16;;;;;;;13.75;11.05;;;;;;;8.66;69.51;98847.84;5012515;28;20462;-74
2023/05/25 04:26:42;;;;;;;17.88;11.10;;;;;;;8.62;69.75;98842.06;5011502;28;20037;-74
2023/05/25 04:29:08;;;;;;;12.00;9.80;;;;;;;8.95;68.35;98848.06;5008207;28;20025;-74
2023/05/25 04:31:46;;;;;;;14.10;9.43;;;;;;;9.02;68.10;98848.00;4997735;28;20126;-74
2023/05/25 04:34:32;;;;;;;16.77;10.27;;;;;;;9.10;69.08;98850.44;5014228;28;20130;-75
2023/05/25 04:37:26;;;;;;;14.63;11.25;;;;;;;9.13;69.76;98857.19;5009068;28;20122;-74
2023/05/25 04:39:52;;;;;;;13.20;11.88;;;;;;;9.36;68.90;98857.44;4997544;28;20069;-75
2023/05/25 04:42:22;;;;;;;12.55;10.57;;;;;;;9.48;68.62;98861.88;5023262;28;20057;-75
2023/05/25 04:44:54;;;;;;;14.43;9.18;;;;;;;9.45;68.55;98859.59;5016031;28;20502;-75
2023/05/25 04:47:21;;;;;;;14.43;11.25;;;;;;;9.34;70.05;98868.41;5012723;28;20034;-75
2023/05/25 04:49:46;;;;;;;16.45;9.98;;;;;;;9.34;69.19;98863.03;5008844;28;20045;-75
2023/05/25 04:52:12;;;;;;;12.10;8.63;;;;;;;9.30;68.65;98869.88;5013483;28;20321;-75
2023/05/25 04:54:37;;;;;;;14.52;8.70;;;;;;;9.61;68.97;98880.56;5005129;28;20041;-73
2023/05/25 04:57:03;;;;;;;16.63;9.30;;;;;;;9.61;68.13;98880.56;5010137;28;20037;-74
2023/05/25 04:59:30;;;;;;;12.73;7.72;;;;;;;9.60;67.60;98878.09;5003590;28;20117;-75
2023/05/25 05:01:56;;;;;;;12.75;8.65;;;;;;;9.64;68.78;98880.13;5032486;28;20064;-75
2023/05/25 05:04:21;;;;;;;13.45;9.05;;;;;;;9.70;68.54;98873.03;4996968;28;20116;-75
2023/05/25 05:06:47;;;;;;;10.68;8.25;;;;;;;10.03;67.01;98867.31;5012327;28;20029;-75
2023/05/25 05:09:17;;;;;;;13.73;10.23;;;;;;;9.99;68.45;98871.50;5012549;28;20111;-75
2023/05/25 05:11:43;;;;;;;13.27;7.68;;;;;;;10.26;66.55;98867.47;5024795;28;20040;-75
2023/05/25 05:14:09;;;;;;;16.70;9.05;;;;;;;10.43;66.44;98865.00;4995997;28;20026;-75
2023/05/25 05:16:36;;;;;;;9.27;7.10;;;;;;;10.43;66.03;98867.69;4995995;28;20042;-75
2023/05/25 05:19:02;;;;;;;12.13;6.90;;;;;;;10.54;65.78;98870.44;5002067;28;20029;-75
2023/05/25 05:21:28;;;;;;;10.52;6.75;;;;;;;10.62;66.00;98861.22;5015258;28;20040;-75
2023/05/25 05:23:54;;;;;;;13.52;7.40;;;;;;;10.54;66.92;98873.13;4992406;28;20124;-75
2023/05/25 05:26:20;;;;;;;10.70;7.82;;;;;;;10.73;66.88;98874.72;5011909;28;20495;-75
2023/05/25 05:28:46;;;;;;;13.23;7.70;;;;;;;10.78;66.84;98882.94;5011745;28;20476;-74
2023/05/25 05:31:12;;;;;;;11.75;7.88;;;;;;;10.57;67.25;98886.13;5001973;28;20136;-74
2023/05/25 05:33:38;;;;;;;12.45;6.88;;;;;;;10.69;66.48;98883.50;5024848;28;20475;-75
2023/05/25 05:36:04;;;;;;;10.05;6.50;;;;;;;10.93;65.76;98891.44;5024861;28;20068;-75
2023/05/25 05:38:30;;;;;;;16.27;7.03;;;;;;;11.11;64.64;98894.06;5001964;28;20029;-75
2023/05/25 05:40:55;;;;;;;9.50;6.32;;;;;;;11.59;64.71;98895.78;5014378;28;20037;-75
2023/05/25 05:43:21;;;;;;;9.85;6.25;;;;;;;11.68;65.25;98894.41;4997642;28;20030;-75
2023/05/25 05:45:47;;;;;;;9.93;5.78;;;;;;;11.81;63.78;98893.38;4998706;28;20122;-75
2023/05/25 05:48:12;;;;;;;11.18;5.93;;;;;;;11.96;64.65;98891.81;5012486;28;20442;-75
2023/05/25 05:50:38;;;;;;;12.77;5.30;;;;;;;12.05;63.33;98898.50;5020457;28;20060;-75
2023/05/25 05:53:04;;;;;;;12.57;5.68;;;;;;;12.01;62.42;98894.63;4995028;28;20025;-75
2023/05/25 05:55:29;;;;;;;11.68;5.72;;;;;;;12.30;62.12;98907.16;5007246;28;20076;-75
2023/05/25 05:57:55;;;;;;;9.52;5.60;;;;;;;12.33;61.49;98898.56;5009100;28;20029;-75
2023/05/25 06:00:21;;;;;;;10.32;4.95;;;;;;;12.33;61.95;98893.16;5023300;28;20037;-75
2023/05/25 06:02:49;;;;;;;10.77;5.05;;;;;;;12.62;61.80;98898.63;5030835;28;20056;-75
2023/05/25 06:05:19;;;;;;;13.02;5.05;;;;;;;12.63;62.20;98897.53;5014934;28;20083;-75
2023/05/25 06:07:45;;;;;;;12.02;5.35;;;;;;;12.62;62.54;98896.75;4994857;28;20033;-75
2023/05/25 06:10:11;;;;;;;11.02;4.70;;;;;;;12.75;62.44;98895.63;5004383;28;20025;-75
2023/05/25 06:12:36;;;;;;;11.63;4.68;;;;;;;12.71;60.06;98884.47;5024182;28;20038;-75
2023/05/25 06:15:03;;;;;;;8.57;4.97;;;;;;;12.52;60.93;98896.53;5023701;28;20029;-75
2023/05/25 06:17:29;;;;;;;11.73;5.22;;;;;;;12.70;60.15;98887.41;5008340;28;20392;-75
2023/05/25 06:19:55;;;;;;;13.25;4.85;;;;;;;12.64;60.91;98889.22;5007291;28;20036;-75
2023/05/25 06:22:21;;;;;;;8.82;4.68;;;;;;;12.48;60.71;98879.97;5014451;28;20037;-74
2023/05/25 06:24:51;;;;;;;10.82;4.93;;;;;;;12.65;60.58;98890.03;5018552;28;20488;-75
2023/05/25 06:27:16;;;;;;;13.60;4.50;;;;;;;12.90;61.32;98877.00;5017619;28;20091;-75
2023/05/25 06:29:41;;;;;;;10.15;4.82;;;;;;;12.98;60.55;98879.28;5013673;28;20017;-75
2023/05/25 06:32:09;;;;;;;11.55;5.00;;;;;;;12.79;60.59;98877.88;5013939;28;20080;-75
2023/05/25 06:34:35;;;;;;;12.27;5.25;;;;;;;13.15;59.39;98891.00;5000637;28;20087;-75
2023/05/25 06:37:01;;;;;;;10.15;5.50;;;;;;;12.98;59.47;98885.53;4994649;28;20034;-75
2023/05/25 06:39:26;;;;;;;9.07;4.75;;;;;;;13.41;58.76;98884.13;5024356;28;20033;-75
2023/05/25 06:41:51;;;;;;;11.68;5.28;;;;;;;13.33;58.37;98888.06;5030221;28;20041;-75
2023/05/25 06:44:26;;;;;;;54.92;10.20;;;;;;;13.20;58.82;98882.16;4985638;28;20091;-75
2023/05/25 06:46:51;;;;;;;10.60;5.00;;;;;;;13.41;58.34;98890.38;5012000;28;20041;-75
2023/05/25 06:49:17;;;;;;;14.35;4.80;;;;;;;13.70;57.38;98889.22;5010659;28;20053;-75
2023/05/25 06:51:42;;;;;;;11.02;5.03;;;;;;;13.41;58.03;98882.25;5011834;28;20037;-75
2023/05/25 06:54:08;;;;;;;9.75;4.63;;;;;;;13.50;58.24;98883.50;5006375;28;20026;-75
2023/05/25 06:56:33;;;;;;;10.25;5.00;;;;;;;13.45;57.48;98878.00;5022457;28;20124;-75
2023/05/25 06:58:59;;;;;;;9.35;4.88;;;;;;;13.44;58.00;98886.38;5025358;28;20053;-75
2023/05/25 07:01:24;;;;;;;11.15;5.00;;;;;;;13.51;57.34;98885.09;5031516;28;20076;-75
2023/05/25 07:03:49;;;;;;;10.25;4.38;;;;;;;13.91;57.60;98889.53;5029272;28;20434;-75
2023/05/25 07:06:15;;;;;;;11.75;4.93;;;;;;;13.94;57.70;98883.59;5010679;28;20042;-75
2023/05/25 07:08:41;;;;;;;13.90;5.20;;;;;;;14.19;56.69;98892.09;5025979;28;20032;-75
2023/05/25 07:11:09;;;;;;;7.65;4.28;;;;;;;14.50;56.91;98891.44;5030191;28;20037;-75
2023/05/25 07:13:34;;;;;;;7.10;4.25;;;;;;;14.23;55.86;98895.94;5012783;28;20030;-75
2023/05/25 07:16:00;;;;;;;10.15;4.63;;;;;;;14.55;55.55;98891.50;5019495;28;20083;-75
2023/05/25 07:18:25;;;;;;;11.23;4.85;;;;;;;14.53;54.66;98899.06;5029308;28;20029;-75
2023/05/25 07:20:50;;;;;;;11.90;4.90;;;;;;;14.50;55.43;98894.97;4993986;28;20483;-75
2023/05/25 07:23:16;;;;;;;10.63;4.60;;;;;;;14.67;55.27;98900.31;5025521;28;20022;-75
2023/05/25 07:25:41;;;;;;;9.13;5.07;;;;;;;15.00;54.59;98899.34;5010340;28;20045;-75
2023/05/25 07:28:07;;;;;;;10.80;4.18;;;;;;;14.77;54.20;98900.41;5024369;28;20021;-75
2023/05/25 07:30:32;;;;;;;9.57;4.70;;;;;;;14.82;53.25;98897.78;5022906;28;20034;-75
2023/05/25 07:32:58;;;;;;;15.57;4.47;;;;;;;14.78;54.46;98891.22;5007365;28;20033;-75
2023/05/25 07:35:24;;;;;;;8.30;4.03;;;;;;;14.87;53.88;98891.59;5013636;28;20045;-75
2023/05/25 07:38:00;;;;;;;9.02;4.40;;;;;;;15.02;53.91;98891.75;5013365;28;20480;-75
2023/05/25 07:40:26;;;;;;;8.35;4.03;;;;;;;15.32;52.52;98891.22;5029914;28;20033;-75
2023/05/25 07:42:52;;;;;;;9.77;4.40;;;;;;;15.35;52.39;98890.72;5017306;28;20088;-75
2023/05/25 07:45:17;;;;;;;9.90;4.18;;;;;;;15.43;51.97;98884.78;5002326;28;20129;-75
2023/05/25 07:47:43;;;;;;;9.02;3.88;;;;;;;15.55;50.86;98885.47;5013650;28;20057;-75
2023/05/25 07:50:08;;;;;;;7.57;4.10;;;;;;;15.51;51.13;98887.09;4997322;28;20586;-75
2023/05/25 07:52:34;;;;;;;7.38;4.07;;;;;;;15.58;52.51;98893.94;5026642;28;20462;-75
2023/05/25 07:54:59;;;;;;;9.57;4.03;;;;;;;15.38;51.02;98890.22;5022551;28;20041;-75
2023/05/25 07:57:25;;;;;;;8.90;4.53;;;;;;;15.18;50.39;98888.94;5018693;28;20118;-75
2023/05/25 07:59:50;;;;;;;12.40;5.07;;;;;;;15.63;49.69;98896.69;5022463;28;20063;-75
2023/05/25 08:02:15;;;;;;;12.05;4.88;;;;;;;15.89;49.45;98893.06;5000186;28;20033;-75
2023/05/25 08:04:41;;;;;;;10.80;4.90;;;;;;;16.08;48.70;98895.38;5016447;28;20029;-76
2023/05/25 08:07:06;;;;;;;11.45;4.55;;;;;;;16.13;50.20;98893.50;5019847;28;20503;-75
2023/05/25 08:09:31;;;;;;;10.15;4.45;;;;;;;16.40;50.64;98899.66;5025170;28;20038;-75
2023/05/25 08:11:57;;;;;;;11.70;4.45;;;;;;;15.91;50.04;98909.13;5013100;28;20369;-75
2023/05/25 08:14:22;;;;;;;9.85;4.78;;;;;;;16.05;49.92;98896.72;5013141;28;20045;-75
2023/05/25 08:16:48;;;;;;;12.35;4.38;;;;;;;16.62;49.09;98891.31;5013264;28;20032;-75
2023/05/25 08:19:13;;;;;;;9.20;4.30;;;;;;;16.38;49.84;98901.78;4996862;28;20109;-75
2023/05/25 08:21:39;;;;;;;8.38;5.13;;;;;;;16.00;48.28;98896.69;5027485;28;20022;-75
2023/05/25 08:24:07;;;;;;;9.80;4.78;;;;;;;15.90;49.77;98899.31;5024517;28;20041;-75
2023/05/25 08:26:35;;;;;;;9.07;4.63;;;;;;;16.41;50.37;98890.38;5027831;28;20486;-75
2023/05/25 08:29:03;;;;;;;8.32;4.35;;;;;;;16.06;49.85;98895.63;5016546;28;20083;-75
2023/05/25 08:31:32;;;;;;;8.43;4.88;;;;;;;16.21;48.68;98901.16;5030066;28;20061;-75
2023/05/25 08:33:58;;;;;;;9.32;4.90;;;;;;;16.55;50.04;98886.13;5002649;28;20462;-75
2023/05/25 08:36:25;;;;;;;10.43;4.65;;;;;;;16.47;50.41;98892.06;5026269;28;20383;-75
2023/05/25 08:38:50;;;;;;;9.73;4.72;;;;;;;16.54;47.98;98895.38;5012844;28;20042;-75
2023/05/25 08:41:16;;;;;;;10.20;4.50;;;;;;;16.66;50.12;98888.91;5026910;28;20033;-75
2023/05/25 08:43:41;;;;;;;8.43;4.63;;;;;;;17.07;48.50;98877.03;5001879;28;20049;-75
2023/05/25 08:46:08;;;;;;;8.00;4.50;;;;;;;16.65;48.73;98900.84;5026264;28;20068;-75
2023/05/25 08:48:35;;;;;;;8.05;4.65;;;;;;;16.44;48.78;98903.47;5004819;28;20029;-75
2023/05/25 08:51:06;;;;;;;8.52;4.95;;;;;;;16.65;49.48;98900.84;5032489;28;20475;-75
2023/05/25 08:53:35;;;;;;;7.93;4.53;;;;;;;17.02;49.03;98896.06;5022533;28;20034;-75
2023/05/25 08:56:02;;;;;;;11.05;5.60;;;;;;;16.84;49.67;98899.28;5026927;28;20775;-75
2023/05/25 08:58:33;;;;;;;11.13;5.47;;;;;;;16.76;49.18;98905.22;5022112;28;20049;-75
2023/05/25 09:01:01;;;;;;;15.27;5.40;;;;;;;17.08;49.10;98895.00;4998800;28;20038;-75
2023/05/25 09:03:29;;;;;;;11.32;5.07;;;;;;;16.57;50.23;98892.13;4995871;28;20033;-75
2023/05/25 09:05:55;;;;;;;9.25;5.10;;;;;;;16.95;49.40;98890.06;5008653;28;20034;-75
2023/05/25 09:08:21;;;;;;;13.10;5.20;;;;;;;17.15;48.26;98890.13;5028863;28;20406;-75
2023/05/25 09:10:47;;;;;;;7.43;4.70;;;;;;;17.36;48.16;98886.34;5029672;28;20036;-75
2023/05/25 09:13:13;;;;;;;10.18;5.18;;;;;;;17.32;47.79;98889.88;5026601;28;20017;-76
2023/05/25 09:15:38;;;;;;;10.43;5.13;;;;;;;17.05;48.28;98892.81;5015920;28;20542;-75
2023/05/25 09:18:04;;;;;;;8.77;5.22;;;;;;;17.73;47.08;98886.91;5005270;28;20033;-75
2023/05/25 09:20:32;;;;;;;9.68;5.10;;;;;;;17.74;47.47;98888.53;5015849;28;20124;-75
2023/05/25 09:22:58;;;;;;;10.75;5.15;;;;;;;17.32;48.76;98895.31;5005504;28;20026;-75
2023/05/25 09:25:26;;;;;;;11.75;5.40;;;;;;;17.76;48.47;98891.78;5029194;28;20068;-75
2023/05/25 09:27:52;;;;;;;10.00;4.78;;;;;;;17.69;47.37;98890.47;5021320;28;20040;-75
2023/05/25 09:30:17;;;;;;;10.63;5.05;;;;;;;18.04;47.54;98897.78;5009140;28;20038;-75
2023/05/25 09:32:42;;;;;;;10.07;5.05;;;;;;;18.21;45.68;98887.38;5023753;28;20079;-76
2023/05/25 09:35:12;;;;;;;7.88;4.90;;;;;;;18.07;47.40;98891.75;5028303;28;20391;-75
2023/05/25 09:37:39;;;;;;;9.88;4.90;;;;;;;18.35;46.23;98893.88;5009143;28;20056;-75
2023/05/25 09:40:05;;;;;;;9.40;4.80;;;;;;;18.73;47.55;98890.50;5020747;28;20029;-75
2023/05/25 09:42:32;;;;;;;13.75;5.28;;;;;;;18.52;46.42;98888.94;5011588;28;20033;-76
2023/05/25 09:44:58;;;;;;;10.23;5.32;;;;;;;18.55;46.43;98888.41;5030479;28;20065;-75
2023/05/25 09:47:25;;;;;;;11.75;5.00;;;;;;;18.86;46.13;98884.41;5002213;28;20026;-75
2023/05/25 09:49:51;;;;;;;9.98;5.53;;;;;;;18.15;45.66;98888.47;5008236;28;20484;-75
2023/05/25 09:52:16;;;;;;;9.50;4.93;;;;;;;18.19;46.77;98886.81;5004399;28;20476;-75
2023/05/25 09:54:46;;;;;;;9.68;4.95;;;;;;;18.25;46.14;98883.81;4994784;28;20042;-75
2023/05/25 09:57:12;;;;;;;7.63;4.72;;;;;;;18.40;46.41;98877.50;5024578;28;20049;-75
2023/05/25 09:59:37;;;;;;;9.55;5.15;;;;;;;18.69;45.57;98875.78;5017903;28;20363;-75
2023/05/25 10:02:03;;;;;;;11.50;5.20;;;;;;;18.48;46.76;98882.41;5017683;28;20041;-75
2023/05/25 10:04:28;;;;;;;9.35;4.65;;;;;;;18.81;44.88;98881.69;5016945;28;20021;-75
2023/05/25 10:06:55;;;;;;;12.07;4.72;;;;;;;18.54;44.96;98882.13;5017854;28;20033;-75
2023/05/25 10:09:21;;;;;;;11.23;4.95;;;;;;;19.49;43.53;98873.63;5018760;28;20071;-75
2023/05/25 10:11:50;;;;;;;7.47;4.72;;;;;;;18.83;43.42;98878.72;5001096;28;20034;-75
2023/05/25 10:14:19;;;;;;;9.55;5.05;;;;;;;18.79;43.94;98881.16;5017812;28;20036;-76
2023/05/25 10:16:48;;;;;;;10.60;4.85;;;;;;;19.12;43.54;98872.25;5014311;28;20108;-75
2023/05/25 10:19:41;;;;;;;10.80;5.28;;;;;;;19.05;42.85;98877.22;5030873;28;20033;-75
2023/05/25 10:22:09;;;;;;;10.48;5.03;;;;;;;19.32;41.12;98874.81;5018692;28;20055;-75
2023/05/25 10:24:57;;;;;;;9.90;5.10;;;;;;;19.23;43.85;98882.00;5031478;28;20071;-75
2023/05/25 10:27:24;;;;;;;10.32;4.80;;;;;;;19.39;42.47;98882.75;5020457;28;20126;-76
2023/05/25 10:29:51;;;;;;;12.45;5.70;;;;;;;19.59;44.03;98879.84;5030610;28;20045;-77
2023/05/25 10:32:17;;;;;;;10.43;5.25;;;;;;;19.28;43.28;98876.50;5010587;28;20048;-76
2023/05/25 10:34:42;;;;;;;8.15;4.88;;;;;;;19.96;42.36;98887.44;4998682;28;20407;-76
2023/05/25 10:37:08;;;;;;;11.88;5.68;;;;;;;18.97;43.99;98891.47;5010810;28;20049;-77
2023/05/25 10:39:35;;;;;;;11.23;5.47;;;;;;;19.63;42.58;98886.38;5025304;28;20033;-77
2023/05/25 10:42:00;;;;;;;10.20;5.68;;;;;;;19.18;43.03;98878.50;5022623;28;20399;-77
2023/05/25 10:44:27;;;;;;;8.90;4.85;;;;;;;19.74;42.57;98887.13;5005331;28;20049;-76
2023/05/25 10:46:53;;;;;;;9.80;5.57;;;;;;;20.21;40.89;98878.19;5020080;28;20094;-76
2023/05/25 10:49:34;;;;;;;8.80;5.38;;;;;;;20.09;42.18;98886.78;5030274;28;20446;-76
2023/05/25 10:52:01;;;;;;;12.00;5.40;;;;;;;20.03;44.07;98876.97;5017428;28;20025;-76
2023/05/25 10:54:30;;;;;;;9.82;5.45;;;;;;;20.18;41.51;98886.97;5023667;28;20439;-76
2023/05/25 10:57:10;;;;;;;7.18;5.18;;;;;;;20.02;40.67;98891.78;5021256;28;20041;-77
2023/05/25 10:59:39;;;;;;;10.02;5.28;;;;;;;20.24;40.18;98875.69;4994805;28;20042;-76
2023/05/25 11:02:05;;;;;;;7.35;4.65;;;;;;;20.06;42.75;98879.16;5023757;28;20037;-77
2023/05/25 11:04:35;;;;;;;11.55;4.97;;;;;;;20.04;41.12;98875.91;5007179;28;20042;-76
2023/05/25 11:07:01;;;;;;;10.40;5.28;;;;;;;20.43;40.48;98882.06;5011803;28;20029;-77
2023/05/25 11:09:30;;;;;;;8.35;5.03;;;;;;;20.85;41.23;98878.50;5017528;28;20379;-76
2023/05/25 11:11:57;;;;;;;9.55;5.32;;;;;;;20.31;40.65;98881.63;5016016;28;20132;-76
2023/05/25 11:14:29;;;;;;;7.65;4.90;;;;;;;20.40;41.45;98876.34;5011430;28;20036;-76
2023/05/25 11:17:11;;;;;;;13.00;5.75;;;;;;;20.20;41.38;98871.06;5014322;28;20128;-76
2023/05/25 11:19:49;;;;;;;7.70;5.35;;;;;;;20.20;40.55;98882.84;5024585;28;20072;-76
2023/05/25 11:22:31;;;;;;;9.55;4.93;;;;;;;19.77;41.21;98872.84;5014580;28;20041;-75
2023/05/25 11:24:58;;;;;;;9.90;5.40;;;;;;;20.29;40.94;98861.97;5017312;28;20038;-76
2023/05/25 11:27:27;;;;;;;10.30;4.88;;;;;;;20.42;41.17;98861.25;5009754;28;20084;-76
2023/05/25 11:29:53;;;;;;;8.68;5.18;;;;;;;20.66;40.96;98863.97;4997614;28;20030;-76
2023/05/25 11:32:19;;;;;;;9.77;5.28;;;;;;;20.75;41.65;98861.41;5013843;28;20034;-76